createdAt,value
2019-04-10T00:01:07.493Z,46.83
2019-04-10T00:03:39.897Z,45.27
2019-04-10T00:06:08.714Z,46.20
2019-04-10T00:08:38.805Z,44.80
2019-04-10T00:11:08.813Z,44.43
2019-04-10T00:13:38.817Z,45.20
2019-04-10T00:16:10.417Z,43.83
2019-04-10T00:18:40.405Z,44.50
2019-04-10T00:21:11.260Z,44.40
2019-04-10T00:23:42.395Z,45.63
2019-04-10T00:26:13.194Z,44.53
2019-04-10T00:28:43.584Z,46.50
2019-04-10T00:31:13.795Z,42.73
2019-04-10T00:33:43.850Z,43.40
2019-04-10T00:36:14.207Z,46.50
2019-04-10T00:38:44.290Z,42.63
2019-04-10T00:41:14.336Z,41.93
2019-04-10T00:43:44.388Z,43.67
2019-04-10T00:46:14.526Z,44.83
2019-04-10T00:48:44.497Z,42.77
2019-04-10T00:51:15.188Z,42.30
2019-04-10T00:53:45.529Z,42.63
2019-04-10T00:56:16.579Z,45.37
2019-04-10T00:58:47.803Z,42.20
2019-04-10T01:01:18.033Z,44.97
2019-04-10T01:03:48.980Z,42.80
2019-04-10T01:06:19.912Z,39.43
2019-04-10T01:08:50.944Z,46.73
2019-04-10T01:11:21.137Z,41.90
2019-04-10T01:13:51.684Z,40.87
2019-04-10T01:16:22.968Z,43.77
2019-04-10T01:18:53.343Z,45.13
2019-04-10T01:21:24.518Z,43.63
2019-04-10T01:23:55.318Z,39.53
2019-04-10T01:26:25.414Z,44.70
2019-04-10T01:28:55.604Z,44.80
2019-04-10T01:31:26.758Z,45.93
2019-04-10T01:33:56.953Z,45.03
2019-04-10T01:36:27.016Z,48.53
2019-04-10T01:38:57.867Z,44.60
2019-04-10T01:41:27.945Z,44.77
2019-04-10T01:43:57.907Z,46.27
2019-04-10T01:46:28.503Z,41.53
2019-04-10T01:48:59.531Z,47.17
2019-04-10T01:51:29.637Z,45.10
2019-04-10T01:54:00.547Z,43.23
2019-04-10T01:56:34.418Z,46.30
2019-04-10T01:59:03.568Z,44.77
2019-04-10T02:01:38.826Z,46.43
2019-04-10T02:04:08.946Z,47.87
2019-04-10T02:06:38.933Z,46.97
2019-04-10T02:09:10.819Z,47.20
2019-04-10T02:11:41.885Z,46.03
2019-04-10T02:14:12.137Z,48.67
2019-04-10T02:16:43.200Z,49.17
2019-04-10T02:19:14.296Z,50.77
2019-04-10T02:21:44.398Z,48.73
2019-04-10T02:24:14.624Z,45.37
2019-04-10T02:26:45.662Z,49.50
2019-04-10T02:29:15.753Z,45.30
2019-04-10T02:31:46.295Z,43.00
2019-04-10T02:34:17.197Z,45.10
2019-04-10T02:36:48.890Z,42.27
2019-04-10T02:39:27.530Z,42.53
2019-04-10T02:41:52.293Z,45.10
2019-04-10T02:44:23.012Z,46.23
2019-04-10T02:46:55.492Z,46.67
2019-04-10T02:49:25.364Z,45.80
2019-04-10T02:51:56.931Z,48.73
2019-04-10T02:54:27.206Z,46.80
2019-04-10T02:56:57.597Z,46.57
2019-04-10T02:59:29.054Z,46.20
2019-04-10T03:02:00.316Z,46.00
2019-04-10T03:04:31.123Z,44.70
2019-04-10T03:07:02.013Z,43.83
2019-04-10T03:09:49.488Z,42.83
2019-04-10T03:12:03.952Z,44.40
2019-04-10T03:14:34.663Z,45.30
2019-04-10T03:17:05.922Z,47.10
2019-04-10T03:19:36.020Z,46.00
2019-04-10T03:22:07.402Z,47.20
2019-04-10T03:24:38.844Z,41.10
2019-04-10T03:27:10.142Z,44.87
2019-04-10T03:29:40.273Z,43.33
2019-04-10T03:32:34.835Z,46.13
2019-04-10T03:35:06.570Z,44.43
2019-04-10T03:37:36.558Z,47.77
2019-04-10T03:40:07.039Z,45.70
2019-04-10T03:42:37.182Z,46.33
2019-04-10T03:45:07.517Z,46.93
2019-04-10T03:47:37.730Z,40.20
2019-04-10T03:50:08.665Z,43.80
2019-04-10T03:52:38.732Z,40.07
2019-04-10T03:55:08.704Z,40.27
2019-04-10T03:57:38.697Z,45.20
2019-04-10T04:00:09.821Z,44.33
2019-04-10T04:02:40.127Z,46.03
2019-04-10T04:05:10.670Z,44.27
2019-04-10T04:07:41.053Z,39.20
2019-04-10T04:10:11.099Z,44.90
2019-04-10T04:12:41.115Z,43.03
2019-04-10T04:15:11.378Z,42.63
2019-04-10T04:17:41.572Z,41.80
2019-04-10T04:20:11.533Z,45.03
2019-04-10T04:22:41.556Z,42.00
2019-04-10T04:25:11.529Z,41.10
2019-04-10T04:27:42.047Z,38.13
2019-04-10T04:30:12.635Z,36.00
2019-04-10T04:32:42.734Z,35.47
2019-04-10T04:35:13.248Z,32.70
2019-04-10T04:37:44.284Z,33.07
2019-04-10T04:40:14.400Z,37.27
2019-04-10T04:42:44.417Z,37.67
2019-04-10T04:45:14.381Z,36.03
2019-04-10T04:47:44.422Z,37.40
2019-04-10T04:50:15.612Z,35.23
2019-04-10T04:52:45.925Z,36.37
2019-04-10T04:55:17.682Z,36.03
2019-04-10T04:57:47.848Z,34.87
2019-04-10T05:00:18.763Z,32.13
2019-04-10T05:02:48.763Z,35.40
2019-04-10T05:05:19.875Z,34.23
2019-04-10T05:07:59.458Z,36.60
2019-04-10T05:10:21.533Z,38.10
2019-04-10T05:12:51.541Z,38.63
2019-04-10T05:15:21.647Z,38.53
2019-04-10T05:17:51.770Z,39.73
2019-04-10T05:20:21.732Z,39.77
2019-04-10T05:22:52.457Z,35.97
2019-04-10T05:25:23.470Z,36.67
2019-04-10T05:27:53.456Z,32.87
2019-04-10T05:30:23.420Z,31.77
2019-04-10T05:32:53.612Z,31.93
2019-04-10T05:35:23.706Z,35.97
2019-04-10T05:37:54.139Z,32.70
2019-04-10T05:40:24.233Z,33.97
2019-04-10T05:42:55.438Z,32.87
2019-04-10T05:45:25.573Z,34.67
2019-04-10T05:47:55.552Z,36.00
2019-04-10T05:50:25.739Z,35.23
2019-04-10T05:52:55.990Z,34.17
2019-04-10T05:55:26.652Z,31.30
2019-04-10T05:57:58.022Z,33.17
2019-04-10T06:00:29.044Z,31.87
2019-04-10T06:02:59.273Z,31.93
2019-04-10T06:05:29.924Z,28.80
2019-04-10T06:08:00.086Z,26.53
2019-04-10T06:10:30.350Z,26.80
2019-04-10T06:13:00.547Z,26.27
2019-04-10T06:15:31.829Z,27.43
2019-04-10T06:18:02.837Z,28.73
2019-04-10T06:20:33.529Z,27.83
2019-04-10T06:23:03.610Z,26.20
2019-04-10T06:25:35.768Z,22.27
2019-04-10T06:28:05.392Z,23.43
2019-04-10T06:30:36.306Z,24.33
2019-04-10T06:33:07.474Z,25.27
2019-04-10T06:35:37.771Z,21.37
2019-04-10T06:38:07.886Z,23.17
2019-04-10T06:40:37.870Z,23.60
2019-04-10T06:43:08.606Z,23.73
2019-04-10T06:45:39.831Z,24.63
2019-04-10T06:48:10.897Z,22.00
2019-04-10T06:50:41.255Z,24.20
2019-04-10T06:53:11.413Z,27.43
2019-04-10T06:55:41.423Z,23.70
2019-04-10T06:58:12.465Z,23.47
2019-04-10T07:00:45.582Z,22.47
2019-04-10T07:03:14.879Z,24.13
2019-04-10T07:06:01.353Z,21.27
2019-04-10T07:08:19.910Z,21.03
2019-04-10T07:10:54.622Z,21.63
2019-04-10T07:13:19.970Z,20.73
2019-04-10T07:15:54.418Z,22.83
2019-04-10T07:18:22.020Z,23.50
2019-04-10T07:20:56.359Z,22.53
2019-04-10T07:23:27.480Z,23.93
2019-04-10T07:25:56.343Z,23.70
2019-04-10T07:28:27.742Z,23.10
2019-04-10T07:30:59.406Z,20.00
2019-04-10T07:33:30.785Z,19.43
2019-04-10T07:36:04.240Z,20.03
2019-04-10T07:38:32.967Z,19.90
2019-04-10T07:41:11.163Z,19.27
2019-04-10T07:43:36.428Z,19.23
2019-04-10T07:46:06.634Z,19.50
2019-04-10T07:48:37.614Z,19.07
2019-04-10T07:51:09.005Z,17.90
2019-04-10T07:53:41.400Z,19.43
2019-04-10T07:56:17.330Z,19.10
2019-04-10T07:58:43.976Z,17.47
2019-04-10T08:01:14.169Z,20.03
2019-04-10T08:03:44.186Z,19.87
2019-04-10T08:06:15.332Z,19.53
2019-04-10T08:08:45.552Z,18.60
2019-04-10T08:11:15.573Z,17.57
2019-04-10T08:13:45.549Z,18.50
2019-04-10T08:16:15.533Z,18.43
2019-04-10T08:18:45.719Z,18.07
2019-04-10T08:21:15.778Z,18.43
2019-04-10T08:23:46.518Z,19.80
2019-04-10T08:26:16.612Z,20.53
2019-04-10T08:28:47.468Z,18.90
2019-04-10T08:31:17.704Z,19.87
2019-04-10T08:33:48.753Z,17.97
2019-04-10T08:36:19.305Z,17.53
2019-04-10T08:38:49.397Z,18.17
2019-04-10T08:41:19.390Z,19.30
2019-04-10T08:43:50.280Z,21.37
2019-04-10T08:46:20.345Z,18.53
2019-04-10T08:48:50.382Z,18.50
2019-04-10T08:51:21.373Z,18.97
2019-04-10T08:53:54.167Z,17.03
2019-04-10T08:56:24.724Z,20.07
2019-04-10T08:58:55.128Z,19.87
2019-04-10T09:01:25.182Z,19.60
2019-04-10T09:03:55.271Z,19.10
2019-04-10T09:06:25.370Z,17.97
2019-04-10T09:08:55.342Z,19.23
2019-04-10T09:11:29.389Z,18.90
2019-04-10T09:13:57.002Z,19.90
2019-04-10T09:16:27.084Z,19.93
2019-04-10T09:18:57.874Z,19.20
2019-04-10T09:21:28.144Z,21.03
2019-04-10T09:23:59.530Z,20.77
2019-04-10T09:26:30.624Z,20.77
2019-04-10T09:29:00.807Z,20.70
2019-04-10T09:31:31.550Z,20.10
2019-04-10T09:34:01.713Z,17.77
2019-04-10T09:36:31.725Z,19.60
2019-04-10T09:39:01.686Z,20.67
2019-04-10T09:41:34.189Z,19.30
2019-04-10T09:44:04.559Z,21.13
2019-04-10T09:46:35.306Z,18.93
2019-04-10T09:49:05.966Z,20.37
2019-04-10T09:51:38.209Z,20.23
2019-04-10T09:54:08.341Z,19.70
2019-04-10T09:56:38.590Z,20.50
2019-04-10T09:59:09.662Z,19.57
2019-04-10T10:01:40.081Z,19.77
2019-04-10T10:04:10.125Z,20.40
2019-04-10T10:06:40.124Z,20.47
2019-04-10T10:09:10.108Z,19.53
2019-04-10T10:11:40.642Z,18.63
2019-04-10T10:14:10.661Z,18.43
2019-04-10T10:16:40.678Z,19.63
2019-04-10T10:19:10.719Z,18.17
2019-04-10T10:21:40.862Z,18.07
2019-04-10T10:24:10.849Z,18.13
2019-04-10T10:26:43.341Z,17.53
2019-04-10T10:29:13.357Z,18.63
2019-04-10T10:31:44.464Z,19.70
2019-04-10T10:34:14.553Z,18.20
2019-04-10T10:36:46.647Z,17.13
2019-04-10T10:39:18.866Z,17.80
2019-04-10T10:41:51.102Z,18.57
2019-04-10T10:44:22.341Z,18.80
2019-04-10T10:46:52.329Z,18.57
2019-04-10T10:49:22.321Z,17.60
2019-04-10T10:51:53.313Z,19.37
2019-04-10T10:54:23.553Z,19.37
2019-04-10T10:56:53.581Z,20.27
2019-04-10T10:59:23.642Z,17.83
2019-04-10T11:01:53.860Z,18.33
2019-04-10T11:04:24.168Z,18.97
2019-04-10T11:07:00.029Z,18.03
2019-04-10T11:09:26.265Z,18.73
2019-04-10T11:11:56.400Z,18.97
2019-04-10T11:14:27.719Z,17.70
2019-04-10T11:16:58.889Z,19.97
2019-04-10T11:19:29.096Z,19.17
2019-04-10T11:21:59.258Z,17.77
2019-04-10T11:24:29.236Z,18.10
2019-04-10T11:27:00.061Z,18.40
2019-04-10T11:29:31.467Z,17.67
2019-04-10T11:32:04.227Z,17.53
2019-04-10T11:34:35.573Z,16.77
2019-04-10T11:37:21.540Z,17.47
2019-04-10T11:39:42.772Z,17.93
2019-04-10T11:42:09.911Z,18.10
2019-04-10T11:44:44.448Z,18.37
2019-04-10T11:47:12.946Z,18.27
2019-04-10T11:49:44.419Z,17.77
2019-04-10T11:52:17.270Z,16.73
2019-04-10T11:54:47.008Z,15.87
2019-04-10T11:57:19.751Z,15.90
2019-04-10T11:59:49.703Z,15.40
2019-04-10T12:02:21.806Z,16.20
2019-04-10T12:04:55.875Z,15.87
2019-04-10T12:07:58.488Z,17.80
2019-04-10T12:12:27.979Z,16.93
2019-04-10T12:14:58.177Z,16.93
2019-04-10T12:17:28.164Z,17.90
2019-04-10T12:19:59.213Z,16.70
2019-04-10T12:22:29.615Z,16.83
2019-04-10T12:25:00.768Z,16.57
2019-04-10T12:27:31.447Z,15.80
2019-04-10T12:30:02.815Z,16.83
2019-04-10T12:32:34.720Z,15.87
2019-04-10T12:35:05.233Z,15.20
2019-04-10T12:37:35.259Z,16.97
2019-04-10T12:40:05.571Z,14.97
2019-04-10T12:42:36.540Z,15.57
2019-04-10T12:45:06.749Z,15.90
2019-04-10T12:47:37.697Z,16.93
2019-04-10T12:50:08.125Z,16.13
2019-04-10T12:52:38.774Z,15.67
2019-04-10T12:55:10.187Z,14.83
2019-04-10T12:57:41.379Z,15.87
2019-04-10T13:00:13.840Z,14.73
2019-04-10T13:02:44.865Z,14.57
2019-04-10T13:05:16.711Z,14.63
2019-04-10T13:07:47.714Z,16.33
2019-04-10T13:10:18.357Z,14.93
2019-04-10T13:12:49.260Z,14.27
2019-04-10T13:15:19.442Z,13.80
2019-04-10T13:17:49.417Z,15.37
2019-04-10T13:20:19.892Z,14.83
2019-04-10T13:22:50.696Z,14.97
2019-04-10T13:25:21.861Z,13.90
2019-04-10T13:27:52.765Z,12.97
2019-04-10T13:30:22.873Z,12.67
2019-04-10T13:32:54.128Z,12.37
2019-04-10T13:35:24.199Z,12.30
2019-04-10T13:37:54.810Z,12.97
2019-04-10T13:40:25.729Z,12.90
2019-04-10T13:42:55.840Z,12.37
2019-04-10T13:45:27.018Z,13.43
2019-04-10T13:47:57.245Z,11.40
2019-04-10T13:50:27.502Z,12.70
2019-04-10T13:52:57.631Z,12.43
2019-04-10T13:55:28.450Z,13.20
2019-04-10T13:58:00.063Z,12.90
2019-04-10T14:00:35.644Z,13.17
2019-04-10T14:03:06.178Z,12.07
2019-04-10T14:05:36.925Z,11.10
2019-04-10T14:08:08.278Z,12.13
2019-04-10T14:10:41.186Z,10.63
2019-04-10T14:13:11.475Z,12.30
2019-04-10T14:15:42.231Z,12.00
2019-04-10T14:18:14.395Z,12.47
2019-04-10T14:20:45.658Z,10.73
2019-04-10T14:23:28.651Z,11.00
2019-04-10T14:26:20.745Z,10.60
2019-04-10T14:28:52.012Z,11.10
2019-04-10T14:31:30.488Z,10.63
2019-04-10T14:34:00.480Z,11.50
2019-04-10T14:36:31.782Z,10.67
2019-04-10T14:39:10.502Z,7.70
2019-04-10T14:41:35.998Z,11.77
2019-04-10T14:44:06.234Z,10.47
2019-04-10T14:46:36.275Z,10.20
2019-04-10T14:49:06.990Z,11.27
2019-04-10T14:51:37.149Z,11.87
2019-04-10T14:54:07.810Z,8.87
2019-04-10T14:56:37.921Z,10.53
2019-04-10T14:59:09.579Z,10.00
2019-04-10T15:01:39.621Z,9.70
2019-04-10T15:04:10.964Z,10.30
2019-04-10T15:06:41.752Z,10.27
2019-04-10T15:09:25.626Z,10.00
2019-04-10T15:11:53.235Z,9.47
2019-04-10T15:14:23.727Z,10.57
2019-04-10T15:17:00.036Z,10.37
2019-04-10T15:19:26.770Z,9.83
2019-04-10T15:21:56.977Z,9.77
2019-04-10T15:24:27.914Z,10.50
2019-04-10T15:26:58.144Z,10.93
2019-04-10T15:29:28.216Z,9.43
2019-04-10T15:32:00.017Z,9.53
2019-04-10T15:34:30.314Z,11.17
2019-04-10T15:37:00.481Z,10.90
2019-04-10T15:39:35.416Z,9.80
2019-04-10T15:42:02.136Z,10.90
2019-04-10T15:44:32.369Z,8.23
2019-04-10T15:47:10.611Z,8.70
2019-04-10T15:49:34.575Z,9.73
2019-04-10T15:52:05.750Z,10.13
2019-04-10T15:54:36.085Z,9.40
2019-04-10T15:57:06.862Z,10.83
2019-04-10T15:59:37.074Z,11.27
2019-04-10T16:02:07.798Z,11.53
2019-04-10T16:04:38.272Z,11.70
2019-04-10T16:07:08.446Z,10.73
2019-04-10T16:09:45.439Z,11.00
2019-04-10T16:12:12.490Z,11.90
2019-04-10T16:14:44.446Z,11.57
2019-04-10T16:17:39.948Z,10.63
2019-04-10T16:20:34.749Z,12.23
2019-04-10T16:23:21.916Z,10.23
2019-04-10T16:25:54.368Z,12.07
2019-04-10T16:28:24.596Z,11.33
2019-04-10T16:30:55.128Z,11.77
2019-04-10T16:33:25.477Z,11.63
2019-04-10T16:35:56.790Z,13.00
2019-04-10T16:38:27.194Z,15.30
2019-04-10T16:40:58.169Z,13.73
2019-04-10T16:43:28.573Z,13.23
2019-04-10T16:45:59.441Z,11.90
2019-04-10T16:48:29.516Z,12.27
2019-04-10T16:50:59.726Z,12.97
2019-04-10T16:53:30.004Z,12.83
2019-04-10T16:56:00.982Z,12.40
2019-04-10T16:58:31.940Z,12.00
2019-04-10T17:01:04.646Z,13.07
2019-04-10T17:03:35.753Z,12.43
2019-04-10T17:06:06.093Z,16.33
2019-04-10T17:08:38.666Z,12.70
2019-04-10T17:11:09.289Z,13.60
2019-04-10T17:13:40.372Z,11.17
2019-04-10T17:16:11.838Z,12.93
2019-04-10T17:18:41.902Z,10.57
2019-04-10T17:21:13.014Z,10.93
2019-04-10T17:23:43.153Z,9.73
2019-04-10T17:26:14.851Z,10.63
2019-04-10T17:28:45.004Z,10.87
2019-04-10T17:31:16.132Z,10.43
2019-04-10T17:33:46.427Z,9.60
2019-04-10T17:36:16.911Z,11.03
2019-04-10T17:38:47.114Z,7.43
2019-04-10T17:41:17.677Z,9.70
2019-04-10T17:43:49.463Z,10.23
2019-04-10T17:46:19.615Z,10.23
2019-04-10T17:48:50.322Z,9.07
2019-04-10T17:51:21.843Z,7.70
2019-04-10T17:53:52.236Z,10.00
2019-04-10T17:56:22.332Z,10.80
2019-04-10T17:58:52.401Z,10.20
2019-04-10T18:01:23.159Z,10.43
2019-04-10T18:03:57.184Z,10.03
2019-04-10T18:06:25.603Z,10.87
2019-04-10T18:08:56.951Z,11.40
2019-04-10T18:11:27.951Z,10.10
2019-04-10T18:13:58.631Z,11.17
2019-04-10T18:16:29.653Z,10.83
2019-04-10T18:19:00.181Z,10.20
2019-04-10T18:21:30.896Z,9.50
2019-04-10T18:24:01.962Z,10.43
2019-04-10T18:26:32.157Z,10.13
2019-04-10T18:29:02.415Z,10.40
2019-04-10T18:31:34.650Z,10.97
2019-04-10T18:34:08.106Z,10.90
2019-04-10T18:36:36.537Z,11.63
2019-04-10T18:39:11.313Z,10.53
2019-04-10T18:41:40.670Z,10.47
2019-04-10T18:44:11.004Z,9.90
2019-04-10T18:46:41.674Z,10.70
2019-04-10T18:49:11.873Z,10.07
2019-04-10T18:51:42.469Z,11.47
2019-04-10T18:54:12.582Z,11.80
2019-04-10T18:56:43.122Z,10.77
2019-04-10T18:59:18.447Z,11.33
2019-04-10T19:02:11.737Z,10.20
2019-04-10T19:04:47.403Z,10.77
2019-04-10T19:07:17.506Z,10.20
2019-04-10T19:09:47.767Z,9.73
2019-04-10T19:12:18.836Z,10.40
2019-04-10T19:14:49.068Z,11.10
2019-04-10T19:17:19.341Z,10.73
2019-04-10T19:19:50.687Z,11.33
2019-04-10T19:22:21.002Z,11.70
2019-04-10T19:24:52.163Z,12.83
2019-04-10T19:27:22.307Z,11.70
2019-04-10T19:29:52.822Z,10.60
2019-04-10T19:32:26.719Z,10.23
2019-04-10T19:34:58.874Z,10.30
2019-04-10T19:37:30.290Z,10.93
2019-04-10T19:40:00.614Z,11.80
2019-04-10T19:42:30.880Z,11.27
2019-04-10T19:45:01.627Z,11.20
2019-04-10T19:47:32.554Z,13.60
2019-04-10T19:50:03.525Z,14.63
2019-04-10T19:52:34.833Z,11.67
2019-04-10T19:55:05.197Z,11.90
2019-04-10T19:57:35.381Z,11.30
2019-04-10T20:00:06.356Z,10.30
2019-04-10T20:02:37.181Z,10.30
2019-04-10T20:05:07.412Z,10.57
2019-04-10T20:07:37.526Z,10.53
2019-04-10T20:10:08.677Z,10.93
2019-04-10T20:12:39.054Z,10.67
2019-04-10T20:15:10.053Z,10.50
2019-04-10T20:17:40.330Z,10.60
2019-04-10T20:20:10.995Z,10.10
2019-04-10T20:22:41.835Z,11.37
2019-04-10T20:25:12.427Z,11.07
2019-04-10T20:27:42.613Z,13.20
2019-04-10T20:30:12.609Z,13.13
2019-04-10T20:32:42.582Z,12.73
2019-04-10T20:35:12.582Z,12.97
2019-04-10T20:37:42.919Z,12.20
2019-04-10T20:40:13.875Z,10.53
2019-04-10T20:42:44.615Z,9.93
2019-04-10T20:45:15.760Z,10.67
2019-04-10T20:47:46.821Z,11.70
2019-04-10T20:50:17.545Z,11.63
2019-04-10T20:52:47.632Z,10.43
2019-04-10T20:55:17.625Z,11.27
2019-04-10T20:57:47.872Z,11.43
2019-04-10T21:00:27.727Z,11.97
2019-04-10T21:02:58.587Z,12.00
2019-04-10T21:05:28.717Z,12.50
2019-04-10T21:07:59.678Z,12.97
2019-04-10T21:10:49.300Z,12.77
2019-04-10T21:13:19.444Z,11.47
2019-04-10T21:15:49.441Z,11.53
2019-04-10T21:18:19.506Z,10.70
2019-04-10T21:20:51.414Z,11.37
2019-04-10T21:23:21.698Z,11.87
2019-04-10T21:25:52.797Z,10.57
2019-04-10T21:28:22.769Z,9.70
2019-04-10T21:31:05.367Z,11.17
2019-04-10T21:33:42.926Z,10.73
2019-04-10T21:36:13.522Z,10.43
2019-04-10T21:38:44.807Z,10.73
2019-04-10T21:41:16.700Z,10.00
2019-04-10T21:43:47.379Z,9.97
2019-04-10T21:46:17.517Z,11.47
2019-04-10T21:48:47.489Z,10.13
2019-04-10T21:51:17.484Z,10.10
2019-04-10T21:53:47.491Z,10.97
2019-04-10T21:56:18.138Z,10.20
2019-04-10T21:58:48.540Z,10.67
2019-04-10T22:01:19.243Z,9.73
2019-04-10T22:03:52.099Z,10.50
2019-04-10T22:06:45.177Z,10.90
2019-04-10T22:09:33.327Z,9.87
2019-04-10T22:12:23.211Z,9.77
2019-04-10T22:14:41.817Z,11.10
2019-04-10T22:17:12.809Z,10.77
2019-04-10T22:19:43.447Z,10.17
2019-04-10T22:22:14.532Z,11.10
2019-04-10T22:24:44.616Z,10.90
2019-04-10T22:27:14.851Z,10.80
2019-04-10T22:29:44.920Z,9.33
2019-04-10T22:32:14.902Z,9.90
2019-04-10T22:34:44.897Z,9.90
2019-04-10T22:37:16.617Z,9.57
2019-04-10T22:39:48.125Z,10.47
2019-04-10T22:42:19.241Z,11.30
2019-04-10T22:44:49.767Z,11.67
2019-04-10T22:47:21.150Z,13.87
2019-04-10T22:49:51.411Z,11.10
2019-04-10T22:52:21.510Z,12.70
2019-04-10T22:54:53.112Z,12.77
2019-04-10T22:57:23.171Z,11.77
2019-04-10T22:59:53.431Z,10.87
2019-04-10T23:02:24.041Z,12.07
2019-04-10T23:04:54.090Z,10.97
2019-04-10T23:07:24.208Z,10.47
2019-04-10T23:09:55.245Z,10.33
2019-04-10T23:12:25.237Z,10.67
2019-04-10T23:14:55.623Z,10.63
2019-04-10T23:17:26.502Z,11.47
2019-04-10T23:19:56.731Z,11.13
2019-04-10T23:22:27.400Z,11.57
2019-04-10T23:25:00.050Z,10.60
2019-04-10T23:27:30.993Z,11.13
2019-04-10T23:30:00.959Z,10.73
2019-04-10T23:32:31.781Z,11.83
2019-04-10T23:35:01.834Z,11.33
2019-04-10T23:37:32.951Z,13.23
2019-04-10T23:40:03.137Z,12.03
2019-04-10T23:42:33.193Z,12.07
2019-04-10T23:45:03.378Z,12.10
2019-04-10T23:47:34.027Z,10.97
2019-04-10T23:50:04.273Z,13.13
2019-04-10T23:52:34.266Z,12.90
2019-04-10T23:55:04.446Z,13.17
2019-04-10T23:57:35.610Z,13.47
